Terminal Aerodrome Forecast
Issued by NWS

Current Version | Previous Version | Text Only | Print | Product List | Glossary On
Versions: 1 2 3 4 5 6 7 8 9 10 11 12 13 14 15 16 17 18 19 20 21 22 23 24 25 26
043
FTUS42 TJSJ 151747
TAFJBQ
TAF
TJBQ 151747Z 1518/1618 07014KT P6SM VCSH SCT025 BKN050 BKN080
      TEMPO 1518/1522 VRB15G20KT 3SM SHRA BKN025 OVC050
     FM152330 11008KT P6SM FEW035 SCT080
     FM160200 13002KT P6SM SKC
     FM161000 07014KT P6SM FEW030 SCT050
     AMD NOT SKED 1602/1611=

USA.gov is the U.S. government's official web portal to all federal, state and local government web resources and services.